createdAt,value
2022-09-04T00:00:39.217Z,12.11
2022-09-04T00:01:44.979Z,12.07
2022-09-04T00:02:39.217Z,12.03
2022-09-04T00:03:39.294Z,12.03
2022-09-04T00:04:39.302Z,12.04
2022-09-04T00:05:39.164Z,12.03
2022-09-04T00:06:39.170Z,12.04
2022-09-04T00:07:39.148Z,12.04
2022-09-04T00:08:39.148Z,11.98
2022-09-04T00:09:39.119Z,11.93
2022-09-04T00:10:39.112Z,11.93
2022-09-04T00:11:39.165Z,11.90
2022-09-04T00:12:39.094Z,11.94
2022-09-04T00:13:39.101Z,11.96
2022-09-04T00:14:39.067Z,11.98
2022-09-04T00:15:39.065Z,11.98
2022-09-04T00:16:39.075Z,11.98
2022-09-04T00:17:39.037Z,12.00
2022-09-04T00:18:39.072Z,12.00
2022-09-04T00:19:39.051Z,12.03
2022-09-04T00:20:39.739Z,12.05
2022-09-04T00:21:39.039Z,12.08
2022-09-04T00:22:38.983Z,12.11
2022-09-04T00:23:39.017Z,12.05
2022-09-04T00:24:38.964Z,12.05
2022-09-04T00:25:38.976Z,12.03
2022-09-04T00:26:38.954Z,11.96
2022-09-04T00:27:38.935Z,11.88
2022-09-04T00:28:38.920Z,11.88
2022-09-04T00:29:38.920Z,11.85
2022-09-04T00:30:38.952Z,11.78
2022-09-04T00:31:38.960Z,11.74
2022-09-04T00:32:38.903Z,11.75
2022-09-04T00:33:38.877Z,11.75
2022-09-04T00:34:38.864Z,11.77
2022-09-04T00:35:39.406Z,11.72
2022-09-04T00:36:38.846Z,11.69
2022-09-04T00:37:38.835Z,11.66
2022-09-04T00:38:38.817Z,11.67
2022-09-04T00:39:38.850Z,11.69
2022-09-04T00:40:38.806Z,11.74
2022-09-04T00:41:38.812Z,11.74
2022-09-04T00:42:38.798Z,11.72
2022-09-04T00:43:38.772Z,11.74
2022-09-04T00:44:38.762Z,11.72
2022-09-04T00:45:38.785Z,11.72
2022-09-04T00:46:38.766Z,11.70
2022-09-04T00:47:38.723Z,11.72
2022-09-04T00:48:38.714Z,11.69
2022-09-04T00:49:38.704Z,11.72
2022-09-04T00:50:38.693Z,11.70
2022-09-04T00:51:38.723Z,11.69
2022-09-04T00:52:38.672Z,11.67
2022-09-04T00:53:38.662Z,11.69
2022-09-04T00:54:38.653Z,11.69
2022-09-04T00:55:38.647Z,11.64
2022-09-04T00:56:38.634Z,11.62
2022-09-04T00:57:38.642Z,11.57
2022-09-04T00:58:38.627Z,11.59
2022-09-04T00:59:38.620Z,11.59
2022-09-04T01:00:38.592Z,11.59
2022-09-04T01:01:38.664Z,11.62
2022-09-04T01:02:38.569Z,11.63
2022-09-04T01:03:38.588Z,11.64
2022-09-04T01:04:38.550Z,11.66
2022-09-04T01:06:34.207Z,11.69
2022-09-04T01:07:35.206Z,11.69
2022-09-04T01:08:35.203Z,11.66
2022-09-04T01:09:35.211Z,11.67
2022-09-04T01:10:35.167Z,11.66
2022-09-04T01:11:35.158Z,11.67
2022-09-04T01:12:35.143Z,11.66
2022-09-04T01:13:35.264Z,11.62
2022-09-04T01:14:35.168Z,11.63
2022-09-04T01:15:35.117Z,11.63
2022-09-04T01:16:35.152Z,11.63
2022-09-04T01:17:35.097Z,11.63
2022-09-04T01:18:35.081Z,11.63
2022-09-04T01:19:35.077Z,11.60
2022-09-04T01:20:35.088Z,11.59
2022-09-04T01:21:35.053Z,11.59
2022-09-04T01:22:35.043Z,11.59
2022-09-04T01:23:35.037Z,11.53
2022-09-04T01:24:35.026Z,11.51
2022-09-04T01:25:35.013Z,11.49
2022-09-04T01:26:35.032Z,11.44
2022-09-04T01:27:34.993Z,11.46
2022-09-04T01:28:34.976Z,11.45
2022-09-04T01:29:34.968Z,11.44
2022-09-04T01:30:34.957Z,11.41
2022-09-04T01:31:35.015Z,11.38
2022-09-04T01:32:34.957Z,11.38
2022-09-04T01:33:34.928Z,11.38
2022-09-04T01:34:34.924Z,11.39
2022-09-04T01:35:34.912Z,11.41
2022-09-04T01:36:34.901Z,11.39
2022-09-04T01:37:34.886Z,11.31
2022-09-04T01:38:34.904Z,11.26
2022-09-04T01:39:34.913Z,11.23
2022-09-04T01:40:36.035Z,11.23
2022-09-04T01:41:38.355Z,11.21
2022-09-04T01:42:34.834Z,11.23
2022-09-04T01:43:34.827Z,11.20
2022-09-04T01:44:34.814Z,11.13
2022-09-04T01:45:34.885Z,11.11
2022-09-04T01:46:34.796Z,11.06
2022-09-04T01:47:34.784Z,11.08
2022-09-04T01:48:34.783Z,11.06
2022-09-04T01:49:34.760Z,11.05
2022-09-04T01:50:34.772Z,10.99
2022-09-04T01:51:34.761Z,11.02
2022-09-04T01:52:34.739Z,11.01
2022-09-04T01:53:34.748Z,11.02
2022-09-04T01:54:34.707Z,11.05
2022-09-04T01:55:34.697Z,11.08
2022-09-04T01:56:34.708Z,11.09
2022-09-04T01:57:34.680Z,11.12
2022-09-04T01:58:34.667Z,11.11
2022-09-04T01:59:34.660Z,11.16
2022-09-04T02:00:34.645Z,11.08
2022-09-04T02:01:34.741Z,11.02
2022-09-04T02:02:34.721Z,11.02
2022-09-04T02:03:34.615Z,11.02
2022-09-04T02:04:34.606Z,11.01
2022-09-04T02:05:34.595Z,11.01
2022-09-04T02:06:34.606Z,11.01
2022-09-04T02:07:34.572Z,11.01
2022-09-04T02:08:34.560Z,10.98
2022-09-04T02:09:34.555Z,10.95
2022-09-04T02:10:34.565Z,10.91
2022-09-04T02:11:34.532Z,10.91
2022-09-04T02:12:34.543Z,10.91
2022-09-04T02:13:34.512Z,10.93
2022-09-04T02:14:34.498Z,10.93
2022-09-04T02:15:34.495Z,10.94
2022-09-04T02:16:34.559Z,10.94
2022-09-04T02:17:34.477Z,10.91
2022-09-04T02:18:34.455Z,10.90
2022-09-04T02:19:34.448Z,10.93
2022-09-04T02:20:34.442Z,10.94
2022-09-04T02:21:34.432Z,10.95
2022-09-04T02:22:34.438Z,10.99
2022-09-04T02:23:34.406Z,10.98
2022-09-04T02:24:34.400Z,10.99
2022-09-04T02:25:34.387Z,10.98
2022-09-04T02:26:34.374Z,10.95
2022-09-04T02:27:34.388Z,10.93
2022-09-04T02:28:34.359Z,10.91
2022-09-04T02:29:34.348Z,10.90
2022-09-04T02:30:34.332Z,10.87
2022-09-04T02:31:34.394Z,10.86
2022-09-04T02:32:34.335Z,10.87
2022-09-04T02:33:34.306Z,10.86
2022-09-04T02:34:34.297Z,10.88
2022-09-04T02:35:34.308Z,10.90
2022-09-04T02:36:34.277Z,10.87
2022-09-04T02:37:34.263Z,10.84
2022-09-04T02:38:34.249Z,10.81
2022-09-04T02:39:34.310Z,10.80
2022-09-04T02:40:34.230Z,10.81
2022-09-04T02:41:34.239Z,10.81
2022-09-04T02:42:34.244Z,10.84
2022-09-04T02:43:34.198Z,10.80
2022-09-04T02:44:34.188Z,10.78
2022-09-04T02:45:34.188Z,10.76
2022-09-04T02:46:34.199Z,10.76
2022-09-04T02:47:34.188Z,10.76
2022-09-04T02:48:34.147Z,10.75
2022-09-04T02:49:34.144Z,10.73
2022-09-04T02:50:34.157Z,10.73
2022-09-04T02:51:34.123Z,10.72
2022-09-04T02:52:34.106Z,10.70
2022-09-04T02:53:34.120Z,10.70
2022-09-04T02:54:34.087Z,10.68
2022-09-04T02:55:34.083Z,10.66
2022-09-04T02:56:34.062Z,10.65
2022-09-04T02:57:34.065Z,10.60
2022-09-04T02:58:34.046Z,10.62
2022-09-04T02:59:34.059Z,10.63
2022-09-04T03:00:34.099Z,10.62
2022-09-04T03:01:34.045Z,10.63
2022-09-04T03:02:34.030Z,10.63
2022-09-04T03:03:33.992Z,10.60
2022-09-04T03:04:34.008Z,10.60
2022-09-04T03:05:33.981Z,10.57
2022-09-04T03:06:33.962Z,10.58
2022-09-04T03:07:33.955Z,10.58
2022-09-04T03:08:36.360Z,10.60
2022-09-04T03:09:33.935Z,10.62
2022-09-04T03:10:33.945Z,10.63
2022-09-04T03:11:33.911Z,10.62
2022-09-04T03:12:33.896Z,10.60
2022-09-04T03:13:33.893Z,10.60
2022-09-04T03:14:33.898Z,10.60
2022-09-04T03:15:33.870Z,10.57
2022-09-04T03:16:33.885Z,10.60
2022-09-04T03:17:33.857Z,10.58
2022-09-04T03:18:33.838Z,10.58
2022-09-04T03:19:33.847Z,10.57
2022-09-04T03:20:33.816Z,10.58
2022-09-04T03:21:33.809Z,10.58
2022-09-04T03:22:33.794Z,10.57
2022-09-04T03:23:33.788Z,10.57
2022-09-04T03:24:33.781Z,10.58
2022-09-04T03:25:33.787Z,10.57
2022-09-04T03:26:33.777Z,10.54
2022-09-04T03:27:33.751Z,10.51
2022-09-04T03:28:33.732Z,10.47
2022-09-04T03:29:33.727Z,10.47
2022-09-04T03:30:33.714Z,10.46
2022-09-04T03:31:33.926Z,10.47
2022-09-04T03:32:33.692Z,10.49
2022-09-04T03:33:33.685Z,10.46
2022-09-04T03:34:33.704Z,10.47
2022-09-04T03:35:33.667Z,10.47
2022-09-04T03:36:33.646Z,10.46
2022-09-04T03:37:33.667Z,10.42
2022-09-04T03:38:33.656Z,10.38
2022-09-04T03:39:33.670Z,10.31
2022-09-04T03:40:33.610Z,10.28
2022-09-04T03:41:33.607Z,10.28
2022-09-04T03:42:33.593Z,10.29
2022-09-04T03:43:33.621Z,10.28
2022-09-04T03:44:33.585Z,10.29
2022-09-04T03:45:33.585Z,10.32
2022-09-04T03:46:33.603Z,10.35
2022-09-04T03:47:33.539Z,10.35
2022-09-04T03:48:33.530Z,10.34
2022-09-04T03:49:33.519Z,10.32
2022-09-04T03:50:33.503Z,10.32
2022-09-04T03:51:33.520Z,10.31
2022-09-04T03:52:33.484Z,10.34
2022-09-04T03:53:33.478Z,10.31
2022-09-04T03:54:33.467Z,10.29
2022-09-04T03:55:33.460Z,10.26
2022-09-04T03:56:33.462Z,10.20
2022-09-04T03:57:33.435Z,10.20
2022-09-04T03:58:33.421Z,10.20
2022-09-04T03:59:33.414Z,10.20
2022-09-04T04:00:33.451Z,10.22
2022-09-04T04:01:33.438Z,10.22
2022-09-04T04:02:33.419Z,10.18
2022-09-04T04:03:33.373Z,10.17
2022-09-04T04:04:33.372Z,10.14
2022-09-04T04:05:33.353Z,10.14
2022-09-04T04:06:33.336Z,10.13
2022-09-04T04:07:33.362Z,10.14
2022-09-04T04:08:33.319Z,10.14
2022-09-04T04:09:33.317Z,10.14
2022-09-04T04:10:33.302Z,10.16
2022-09-04T04:11:33.295Z,10.17
2022-09-04T04:12:33.274Z,10.14
2022-09-04T04:13:33.244Z,10.11
2022-09-04T04:14:33.211Z,10.10
2022-09-04T04:15:33.224Z,10.09
2022-09-04T04:16:33.312Z,10.06
2022-09-04T04:17:33.229Z,10.04
2022-09-04T04:18:33.217Z,10.06
2022-09-04T04:19:33.212Z,10.01
2022-09-04T04:20:33.142Z,9.98
2022-09-04T04:21:33.133Z,9.96
2022-09-04T04:22:33.122Z,9.96
2022-09-04T04:23:33.111Z,9.96
2022-09-04T04:24:33.098Z,9.96
2022-09-04T04:25:33.131Z,9.98
2022-09-04T04:26:33.075Z,9.99
2022-09-04T04:27:33.072Z,9.99
2022-09-04T04:28:33.056Z,10.01
2022-09-04T04:29:33.045Z,10.01
2022-09-04T04:30:33.038Z,10.02
2022-09-04T04:31:33.082Z,10.04
2022-09-04T04:32:33.020Z,10.06
2022-09-04T04:33:33.007Z,10.01
2022-09-04T04:34:33.009Z,9.99
2022-09-04T04:35:32.982Z,9.95
2022-09-04T04:36:32.977Z,9.95
2022-09-04T04:37:32.980Z,9.98
2022-09-04T04:38:32.960Z,9.98
2022-09-04T04:39:32.979Z,9.96
2022-09-04T04:40:32.977Z,9.93
2022-09-04T04:41:32.919Z,9.95
2022-09-04T04:42:32.916Z,9.98
2022-09-04T04:43:32.922Z,9.98
2022-09-04T04:44:32.892Z,10.02
2022-09-04T04:45:32.879Z,10.02
2022-09-04T04:46:32.923Z,10.02
2022-09-04T04:47:32.863Z,10.04
2022-09-04T04:48:32.869Z,10.04
2022-09-04T04:49:32.840Z,10.02
2022-09-04T04:50:32.831Z,10.02
2022-09-04T04:51:32.819Z,10.01
2022-09-04T04:52:32.818Z,10.02
2022-09-04T04:53:32.798Z,10.02
2022-09-04T04:54:32.810Z,10.04
2022-09-04T04:55:32.781Z,10.06
2022-09-04T04:56:32.769Z,10.04
2022-09-04T04:57:32.757Z,10.02
2022-09-04T04:58:32.748Z,9.99
2022-09-04T04:59:32.758Z,9.96
2022-09-04T05:00:32.746Z,9.96
2022-09-04T05:01:32.813Z,9.98
2022-09-04T05:02:32.815Z,10.02
2022-09-04T05:03:32.694Z,10.02
2022-09-04T05:04:32.689Z,10.04
2022-09-04T05:05:32.677Z,10.02
2022-09-04T05:06:32.683Z,10.02
2022-09-04T05:07:32.658Z,10.06
2022-09-04T05:08:32.644Z,10.04
2022-09-04T05:09:32.632Z,10.06
2022-09-04T05:10:32.621Z,10.07
2022-09-04T05:11:32.626Z,10.10
2022-09-04T05:12:32.603Z,10.16
2022-09-04T05:13:32.589Z,10.18
2022-09-04T05:14:32.583Z,10.22
2022-09-04T05:15:32.568Z,10.24
2022-09-04T05:16:32.612Z,10.24
2022-09-04T05:17:32.549Z,10.26
2022-09-04T05:18:32.539Z,10.28
2022-09-04T05:19:32.529Z,10.28
2022-09-04T05:20:32.523Z,10.31
2022-09-04T05:21:32.507Z,10.35
2022-09-04T05:22:34.392Z,10.38
2022-09-04T05:23:32.485Z,10.39
2022-09-04T05:24:32.484Z,10.44
2022-09-04T05:25:32.463Z,10.49
2022-09-04T05:26:32.459Z,10.54
2022-09-04T05:27:32.446Z,10.57
2022-09-04T05:28:32.474Z,10.60
2022-09-04T05:29:32.833Z,10.65
2022-09-04T05:30:32.415Z,10.69
2022-09-04T05:31:32.454Z,10.72
2022-09-04T05:32:32.396Z,10.76
2022-09-04T05:33:32.407Z,10.83
2022-09-04T05:34:32.377Z,10.84
2022-09-04T05:35:35.569Z,10.90
2022-09-04T05:36:32.356Z,10.94
2022-09-04T05:37:32.376Z,11.01
2022-09-04T05:38:32.352Z,11.03
2022-09-04T05:39:32.386Z,11.09
2022-09-04T05:40:32.316Z,11.11
2022-09-04T05:41:32.303Z,11.16
2022-09-04T05:42:32.290Z,11.21
2022-09-04T05:43:32.275Z,11.26
2022-09-04T05:44:32.303Z,11.33
2022-09-04T05:45:32.256Z,11.38
2022-09-04T05:46:32.442Z,11.42
2022-09-04T05:47:32.245Z,11.46
2022-09-04T05:48:32.240Z,11.56
2022-09-04T05:49:32.218Z,11.59
2022-09-04T05:50:32.237Z,11.64
2022-09-04T05:51:32.197Z,11.69
2022-09-04T05:52:32.187Z,11.72
2022-09-04T05:53:32.175Z,11.77
2022-09-04T05:54:32.168Z,11.84
2022-09-04T05:55:32.267Z,11.90
2022-09-04T05:56:32.151Z,11.98
2022-09-04T05:57:32.140Z,12.03
2022-09-04T05:58:32.127Z,12.11
2022-09-04T05:59:32.117Z,12.16
2022-09-04T06:00:32.106Z,12.22
2022-09-04T06:01:32.157Z,12.26
2022-09-04T06:02:32.156Z,12.31
2022-09-04T06:03:32.086Z,12.36
2022-09-04T06:04:32.066Z,12.43
2022-09-04T06:05:32.051Z,12.48
2022-09-04T06:06:32.051Z,12.54
2022-09-04T06:07:32.050Z,12.56
2022-09-04T06:08:32.185Z,12.61
2022-09-04T06:09:32.013Z,12.67
2022-09-04T06:10:32.003Z,12.76
2022-09-04T06:11:31.989Z,12.81
2022-09-04T06:12:32.013Z,12.89
2022-09-04T06:13:31.979Z,12.96
2022-09-04T06:14:31.960Z,13.03
2022-09-04T06:15:31.944Z,13.10
2022-09-04T06:16:31.940Z,13.14
2022-09-04T06:17:31.923Z,13.19
2022-09-04T06:18:31.940Z,13.24
2022-09-04T06:19:31.947Z,13.28
2022-09-04T06:20:31.895Z,13.32
2022-09-04T06:21:31.884Z,13.38
2022-09-04T06:22:31.880Z,13.43
2022-09-04T06:23:31.886Z,13.44
2022-09-04T06:24:31.860Z,13.51
2022-09-04T06:25:31.841Z,13.55
2022-09-04T06:26:31.836Z,13.61
2022-09-04T06:27:34.496Z,13.69
2022-09-04T06:28:31.819Z,13.76
2022-09-04T06:29:31.843Z,13.84
2022-09-04T06:30:31.797Z,13.88
2022-09-04T06:31:31.868Z,13.96
2022-09-04T06:32:31.776Z,14.01
2022-09-04T06:33:31.764Z,14.04
2022-09-04T06:34:31.773Z,14.11
2022-09-04T06:35:31.761Z,14.19
2022-09-04T06:36:31.740Z,14.27
2022-09-04T06:37:31.716Z,14.34
2022-09-04T06:38:31.714Z,14.35
2022-09-04T06:39:31.746Z,14.39
2022-09-04T06:40:31.704Z,14.42
2022-09-04T06:41:31.694Z,14.45
2022-09-04T06:42:31.673Z,14.48
2022-09-04T06:43:31.657Z,14.54
2022-09-04T06:44:31.651Z,14.60
2022-09-04T06:45:31.660Z,14.66
2022-09-04T06:46:31.736Z,14.75
2022-09-04T06:47:31.616Z,14.80
2022-09-04T06:48:31.612Z,14.90
2022-09-04T06:49:31.596Z,14.98
2022-09-04T06:50:31.589Z,15.05
2022-09-04T06:51:32.643Z,15.11
2022-09-04T06:52:31.589Z,15.16
2022-09-04T06:53:31.561Z,15.20
2022-09-04T06:54:32.348Z,15.25
2022-09-04T06:55:31.541Z,15.30
2022-09-04T06:56:31.548Z,15.37
2022-09-04T06:57:31.517Z,15.41
2022-09-04T06:58:31.506Z,15.48
2022-09-04T06:59:31.511Z,15.56
2022-09-04T07:00:31.488Z,15.62
2022-09-04T07:01:31.607Z,15.66
2022-09-04T07:02:31.603Z,15.73
2022-09-04T07:03:31.449Z,15.77
2022-09-04T07:04:31.446Z,15.81
2022-09-04T07:05:31.454Z,15.81
2022-09-04T07:06:31.422Z,15.85
2022-09-04T07:07:31.412Z,15.88
2022-09-04T07:08:31.397Z,15.96
2022-09-04T07:09:31.419Z,16.04
2022-09-04T07:10:31.395Z,16.13
2022-09-04T07:11:31.367Z,16.22
2022-09-04T07:12:31.369Z,16.23
2022-09-04T07:13:31.348Z,16.27
2022-09-04T07:14:31.347Z,16.30
2022-09-04T07:15:31.408Z,16.26
2022-09-04T07:16:31.313Z,16.18
2022-09-04T07:17:31.304Z,16.07
2022-09-04T07:18:31.324Z,16.03
2022-09-04T07:19:31.283Z,15.98
2022-09-04T07:20:31.274Z,15.99
2022-09-04T07:21:31.287Z,15.99
2022-09-04T07:22:31.251Z,16.03
2022-09-04T07:23:31.237Z,15.98
2022-09-04T07:24:31.246Z,15.98
2022-09-04T07:25:31.215Z,15.99
2022-09-04T07:26:31.259Z,15.96
2022-09-04T07:27:31.208Z,15.96
2022-09-04T07:28:31.188Z,15.95
2022-09-04T07:29:31.175Z,15.98
2022-09-04T07:30:31.178Z,16.01
2022-09-04T07:31:31.194Z,16.10
2022-09-04T07:32:31.167Z,16.14
2022-09-04T07:33:31.136Z,16.23
2022-09-04T07:34:31.132Z,16.34
2022-09-04T07:35:31.122Z,16.40
2022-09-04T07:36:31.943Z,16.37
2022-09-04T07:37:31.117Z,16.40
2022-09-04T07:38:31.090Z,16.42
2022-09-04T07:39:31.123Z,16.51
2022-09-04T07:40:31.072Z,16.54
2022-09-04T07:41:31.056Z,16.50
2022-09-04T07:42:31.189Z,16.54
2022-09-04T07:43:31.056Z,16.59
2022-09-04T07:44:31.028Z,16.62
2022-09-04T07:45:31.013Z,16.66
2022-09-04T07:46:31.057Z,16.78
2022-09-04T07:47:30.990Z,16.91
2022-09-04T07:48:31.012Z,16.99
2022-09-04T07:49:30.969Z,17.06
2022-09-04T07:50:30.978Z,17.18
2022-09-04T07:51:30.947Z,17.25
2022-09-04T07:52:30.967Z,17.33
2022-09-04T07:53:30.928Z,17.42
2022-09-04T07:54:30.924Z,17.57
2022-09-04T07:55:30.929Z,17.68
2022-09-04T07:56:30.899Z,17.66
2022-09-04T07:57:30.893Z,17.66
2022-09-04T07:58:30.881Z,17.66
2022-09-04T07:59:30.871Z,17.70
2022-09-04T08:00:30.884Z,17.76
2022-09-04T08:01:30.872Z,17.80
2022-09-04T08:02:30.840Z,17.91
2022-09-04T08:03:30.842Z,17.99
2022-09-04T08:04:30.862Z,18.13
2022-09-04T08:05:30.804Z,18.23
2022-09-04T08:06:30.810Z,18.26
2022-09-04T08:07:30.785Z,18.29
2022-09-04T08:08:30.800Z,18.36
2022-09-04T08:09:30.761Z,18.49
2022-09-04T08:10:30.765Z,18.65
2022-09-04T08:11:30.744Z,18.72
2022-09-04T08:12:30.740Z,18.78
2022-09-04T08:13:30.722Z,18.93
2022-09-04T08:14:30.733Z,19.09
2022-09-04T08:15:30.728Z,19.16
2022-09-04T08:16:30.692Z,19.24
2022-09-04T08:17:30.677Z,19.30
2022-09-04T08:18:30.690Z,19.43
2022-09-04T08:19:30.657Z,19.53
2022-09-04T08:20:30.652Z,19.50
2022-09-04T08:21:30.635Z,19.32
2022-09-04T08:22:30.623Z,19.25
2022-09-04T08:23:30.609Z,19.31
2022-09-04T08:24:30.629Z,19.42
2022-09-04T08:25:30.592Z,19.60
2022-09-04T08:26:30.586Z,19.76
2022-09-04T08:27:30.576Z,19.79
2022-09-04T08:28:30.574Z,19.83
2022-09-04T08:29:30.575Z,20.00
2022-09-04T08:30:30.547Z,20.16
2022-09-04T08:31:30.584Z,20.38
2022-09-04T08:32:36.767Z,20.56
2022-09-04T08:33:30.528Z,20.66
2022-09-04T08:35:25.482Z,20.41
2022-09-04T08:36:26.454Z,20.53
2022-09-04T08:37:33.975Z,20.60
2022-09-04T08:38:26.561Z,20.60
2022-09-04T08:39:26.449Z,20.53
2022-09-04T08:40:26.421Z,20.54
2022-09-04T08:41:26.392Z,20.64
2022-09-04T08:42:26.393Z,20.58
2022-09-04T08:43:26.369Z,20.68
2022-09-04T08:44:26.359Z,20.79
2022-09-04T08:45:26.385Z,20.82
2022-09-04T08:46:28.946Z,20.90
2022-09-04T08:47:26.363Z,20.91
2022-09-04T08:48:26.478Z,20.71
2022-09-04T08:49:26.309Z,20.75
2022-09-04T08:50:26.290Z,20.73
2022-09-04T08:51:26.316Z,20.66
2022-09-04T08:52:26.273Z,20.72
2022-09-04T08:53:26.278Z,20.81
2022-09-04T08:54:26.246Z,21.01
2022-09-04T08:55:26.247Z,21.09
2022-09-04T08:56:26.254Z,21.00
2022-09-04T08:57:26.230Z,20.96
2022-09-04T08:58:26.247Z,20.91
2022-09-04T08:59:26.201Z,20.81
2022-09-04T09:00:26.200Z,20.76
2022-09-04T09:01:26.224Z,20.69
2022-09-04T09:02:26.273Z,20.81
2022-09-04T09:03:26.161Z,20.93
2022-09-04T09:04:26.148Z,21.15
2022-09-04T09:05:26.148Z,21.31
2022-09-04T09:06:26.131Z,21.46
2022-09-04T09:07:26.128Z,21.21
2022-09-04T09:08:30.965Z,21.03
2022-09-04T09:09:26.108Z,21.15
2022-09-04T09:10:26.098Z,21.38
2022-09-04T09:11:26.080Z,21.48
2022-09-04T09:12:26.103Z,21.51
2022-09-04T09:13:26.066Z,21.61
2022-09-04T09:14:26.064Z,21.83
2022-09-04T09:15:26.043Z,22.02
2022-09-04T09:16:26.109Z,22.20
2022-09-04T09:17:29.989Z,22.29
2022-09-04T09:18:26.175Z,22.33
2022-09-04T09:19:26.010Z,22.23
2022-09-04T09:20:25.983Z,22.30
2022-09-04T09:21:25.998Z,22.41
2022-09-04T09:22:25.959Z,22.27
2022-09-04T09:23:25.965Z,22.11
2022-09-04T09:24:25.934Z,21.90
2022-09-04T09:25:25.930Z,21.59
2022-09-04T09:26:25.916Z,21.53
2022-09-04T09:27:25.942Z,21.67
2022-09-04T09:28:25.897Z,21.67
2022-09-04T09:29:25.889Z,21.77
2022-09-04T09:30:25.924Z,21.99
2022-09-04T09:31:25.859Z,22.17
2022-09-04T09:32:25.877Z,22.36
2022-09-04T09:33:26.061Z,22.59
2022-09-04T09:34:25.828Z,22.70
2022-09-04T09:35:25.818Z,22.79
2022-09-04T09:36:25.808Z,22.85
2022-09-04T09:37:25.812Z,22.79
2022-09-04T09:38:25.809Z,22.46
2022-09-04T09:39:25.832Z,22.56
2022-09-04T09:40:25.788Z,22.48
2022-09-04T09:41:25.774Z,22.26
2022-09-04T09:42:25.748Z,22.30
2022-09-04T09:43:25.927Z,22.49
2022-09-04T09:44:25.726Z,22.89
2022-09-04T09:45:25.736Z,22.96
2022-09-04T09:46:25.799Z,23.06
2022-09-04T09:47:25.691Z,23.18
2022-09-04T09:48:25.689Z,23.38
2022-09-04T09:49:25.700Z,23.60
2022-09-04T09:50:25.667Z,23.81
2022-09-04T09:51:25.652Z,23.97
2022-09-04T09:52:25.641Z,24.16
2022-09-04T09:53:25.829Z,24.24
2022-09-04T09:54:25.624Z,23.96
2022-09-04T09:55:25.629Z,23.81
2022-09-04T09:56:25.592Z,23.90
2022-09-04T09:57:33.405Z,23.97
2022-09-04T09:58:25.619Z,24.06
2022-09-04T09:59:25.580Z,23.96
2022-09-04T10:00:25.575Z,23.96
2022-09-04T10:01:25.676Z,24.08
2022-09-04T10:02:25.610Z,24.21
2022-09-04T10:03:25.831Z,24.26
2022-09-04T10:04:25.504Z,24.24
2022-09-04T10:05:25.501Z,24.19
2022-09-04T10:06:25.514Z,24.11
2022-09-04T10:07:25.485Z,24.19
2022-09-04T10:08:33.814Z,24.24
2022-09-04T10:09:25.475Z,24.05
2022-09-04T10:10:25.448Z,23.97
2022-09-04T10:11:25.478Z,24.05
2022-09-04T10:12:25.443Z,24.15
2022-09-04T10:13:25.660Z,24.27
2022-09-04T10:14:25.491Z,24.29
2022-09-04T10:15:25.396Z,24.37
2022-09-04T10:16:25.439Z,24.41
2022-09-04T10:17:25.395Z,24.44
2022-09-04T10:18:25.367Z,24.34
2022-09-04T10:19:25.352Z,24.02
2022-09-04T10:20:25.376Z,23.69
2022-09-04T10:21:25.335Z,23.34
2022-09-04T10:22:25.428Z,23.01
2022-09-04T10:23:25.484Z,22.67
2022-09-04T10:24:25.298Z,22.64
2022-09-04T10:25:25.287Z,22.60
2022-09-04T10:26:25.332Z,22.56
2022-09-04T10:27:25.294Z,22.60
2022-09-04T10:28:25.365Z,22.74
2022-09-04T10:29:25.290Z,22.76
2022-09-04T10:30:25.291Z,22.75
2022-09-04T10:31:25.231Z,22.75
2022-09-04T10:32:25.224Z,22.75
2022-09-04T10:33:25.445Z,22.84
2022-09-04T10:34:25.239Z,22.96
2022-09-04T10:35:25.444Z,23.06
2022-09-04T10:36:25.181Z,23.09
2022-09-04T10:37:25.159Z,23.09
2022-09-04T10:38:25.174Z,23.04
2022-09-04T10:39:25.240Z,23.09
2022-09-04T10:40:25.153Z,23.19
2022-09-04T10:41:25.138Z,23.47
2022-09-04T10:42:25.179Z,23.68
2022-09-04T10:43:25.143Z,23.89
2022-09-04T10:44:25.098Z,23.94
2022-09-04T10:45:25.076Z,23.87
2022-09-04T10:46:25.167Z,23.90
2022-09-04T10:47:25.063Z,23.87
2022-09-04T10:48:28.468Z,23.82
2022-09-04T10:49:25.045Z,23.90
2022-09-04T10:50:25.028Z,24.08
2022-09-04T10:51:25.045Z,24.16
2022-09-04T10:52:25.018Z,24.12
2022-09-04T10:53:25.102Z,24.11
2022-09-04T10:54:24.990Z,23.96
2022-09-04T10:55:24.979Z,23.67
2022-09-04T10:56:25.044Z,23.44
2022-09-04T10:57:25.001Z,23.44
2022-09-04T10:58:24.958Z,23.50
2022-09-04T10:59:24.931Z,23.47
2022-09-04T11:00:24.940Z,23.38
2022-09-04T11:01:24.960Z,23.35
2022-09-04T11:02:24.950Z,23.45
2022-09-04T11:03:24.999Z,23.62
2022-09-04T11:04:24.895Z,23.71
2022-09-04T11:05:24.919Z,23.74
2022-09-04T11:06:24.892Z,23.78
2022-09-04T11:07:28.564Z,23.96
2022-09-04T11:08:24.858Z,24.23
2022-09-04T11:09:24.861Z,24.51
2022-09-04T11:10:24.835Z,24.39
2022-09-04T11:11:24.822Z,24.42
2022-09-04T11:12:24.862Z,24.51
2022-09-04T11:13:24.935Z,24.39
2022-09-04T11:14:24.894Z,24.27
2022-09-04T11:15:24.801Z,24.21
2022-09-04T11:16:24.853Z,24.08
2022-09-04T11:17:24.833Z,23.99
2022-09-04T11:18:24.759Z,23.94
2022-09-04T11:19:24.840Z,24.11
2022-09-04T11:20:25.756Z,24.08
2022-09-04T11:21:24.714Z,24.16
2022-09-04T11:22:24.723Z,24.37
2022-09-04T11:23:24.855Z,24.68
2022-09-04T11:24:24.692Z,24.99
2022-09-04T11:25:24.678Z,25.27
2022-09-04T11:26:24.701Z,25.64
2022-09-04T11:27:24.673Z,25.89
2022-09-04T11:28:24.676Z,25.98
2022-09-04T11:29:24.624Z,26.09
2022-09-04T11:30:24.641Z,26.09
2022-09-04T11:31:24.721Z,26.13
2022-09-04T11:32:24.602Z,26.24
2022-09-04T11:33:24.706Z,26.08
2022-09-04T11:34:24.600Z,26.00
2022-09-04T11:35:24.572Z,26.23
2022-09-04T11:36:24.560Z,26.57
2022-09-04T11:37:24.639Z,26.46
2022-09-04T11:38:24.541Z,26.59
2022-09-04T11:39:24.593Z,26.69
2022-09-04T11:40:24.518Z,26.72
2022-09-04T11:41:24.505Z,26.71
2022-09-04T11:42:24.532Z,26.60
2022-09-04T11:43:24.666Z,26.78
2022-09-04T11:44:24.488Z,26.97
2022-09-04T11:45:24.591Z,27.02
2022-09-04T11:46:24.482Z,27.09
2022-09-04T11:47:24.504Z,27.28
2022-09-04T11:48:24.483Z,27.39
2022-09-04T11:49:24.422Z,27.52
2022-09-04T11:50:24.422Z,27.52
2022-09-04T11:51:24.396Z,27.43
2022-09-04T11:52:24.381Z,27.52
2022-09-04T11:53:24.528Z,27.43
2022-09-04T11:54:24.369Z,27.40
2022-09-04T11:55:24.361Z,27.43
2022-09-04T11:56:24.372Z,27.65
2022-09-04T11:57:24.334Z,27.86
2022-09-04T11:58:24.342Z,28.21
2022-09-04T11:59:24.326Z,28.36
2022-09-04T12:00:24.304Z,28.38
2022-09-04T12:01:24.311Z,28.62
2022-09-04T12:02:24.366Z,28.69
2022-09-04T12:03:24.377Z,28.74
2022-09-04T12:04:24.364Z,29.03
2022-09-04T12:05:24.269Z,28.91
2022-09-04T12:06:24.248Z,28.79
2022-09-04T12:07:24.229Z,28.85
2022-09-04T12:08:24.225Z,28.85
2022-09-04T12:09:24.233Z,28.88
2022-09-04T12:10:24.232Z,28.70
2022-09-04T12:11:24.193Z,28.60
2022-09-04T12:12:24.183Z,28.38
2022-09-04T12:13:24.181Z,28.13
2022-09-04T12:14:24.159Z,27.91
2022-09-04T12:15:24.195Z,27.90
2022-09-04T12:16:24.176Z,27.80
2022-09-04T12:17:24.150Z,27.91
2022-09-04T12:18:24.120Z,28.08
2022-09-04T12:19:24.107Z,27.95
2022-09-04T12:20:24.359Z,28.03
2022-09-04T12:21:24.109Z,28.17
2022-09-04T12:22:24.083Z,28.18
2022-09-04T12:23:24.227Z,28.43
2022-09-04T12:24:24.055Z,28.50
2022-09-04T12:25:24.080Z,28.33
2022-09-04T12:26:24.066Z,28.17
2022-09-04T12:27:24.026Z,27.99
2022-09-04T12:28:24.040Z,27.87
2022-09-04T12:29:24.013Z,27.80
2022-09-04T12:30:23.999Z,27.91
2022-09-04T12:31:24.070Z,28.06
2022-09-04T12:32:24.006Z,28.36
2022-09-04T12:33:24.049Z,28.36
2022-09-04T12:34:23.955Z,28.24
2022-09-04T12:35:25.766Z,28.30
2022-09-04T12:36:23.940Z,28.33
2022-09-04T12:37:23.929Z,28.61
2022-09-04T12:38:23.957Z,28.97
2022-09-04T12:39:23.953Z,29.11
2022-09-04T12:40:23.919Z,29.07
2022-09-04T12:41:23.880Z,28.87
2022-09-04T12:42:23.905Z,28.73
2022-09-04T12:43:24.017Z,28.51
2022-09-04T12:44:23.853Z,28.14
2022-09-04T12:45:23.908Z,27.88
2022-09-04T12:46:23.858Z,27.62
2022-09-04T12:47:23.821Z,27.63
2022-09-04T12:48:23.834Z,27.68
2022-09-04T12:49:23.805Z,27.96
2022-09-04T12:50:23.800Z,28.33
2022-09-04T12:51:23.779Z,28.70
2022-09-04T12:52:23.771Z,29.10
2022-09-04T12:53:23.783Z,29.18
2022-09-04T12:54:23.755Z,29.42
2022-09-04T12:55:23.746Z,29.55